Main page
METAR-TAF:

METAR-TAF

Airports :

Stewart Aerodrome

Stewart, British Columbia, Canada

latitude: 55-56N, longitude: 129-59W, elevation: 7 m

Current weather observation

The report was made 38 minutes ago, at 22:00 UTC
Wind 5 kt from the South/Southwest, varying between South and West
Temperature 15°C
Humidity 48%
Pressure 1017 hPa
Visibility: 24.1 km
Scattered clouds at a height of 6500 ft
Overcast at a height of 9000 ft

METAR: CZST 132200Z 21005KT 170V260 15SM SCT065 OVC090 15/04 A3003 RMK CU3AS5 SLP171

Time: 15:38 (22:38 UTC)


TAF: missing

Weather observations and forecasts of more than 4000 airports (METAR and TAF reports).

The available stations are represented by yellow and red dots on the map.

Hover mouse over dot to see the name of the station.

Then click to see weather observations and forecasts.

To change the map : click on the green buttons with a black cross to zoom in, on the green button with a dash to zoom out, or on the green arrows for adjacent maps.


METAR-TAF: